Currently 56°F in Wildomar, California, USA
56°F
56°F / 48°F
calm
0.00"
Monday, February 20, 2017 9:45 AM PST

Wildomar, California Weather Summary
Last 36 Hours

Temperature Winds Hourly Humidity Dewpoint
Time Report Norm Report Norm Max Gusts Precip. Rpt. Norm Rpt. Norm Pressure
1,2Mon 09:45 AM  56.2°F  58°F  calm  2 mph  none  0.00"  80%  58%  50°F  43°F  30.31"
Mon 09:00 AM  53.2°F  54°F  calm  1 mph  none  0.00"  83%  69%  48°F  44°F  30.31"
Mon 08:00 AM  51.1°F  46°F  calm  1 mph  none  0.00"  89%  84%  48°F  42°F  30.29"
Mon 07:00 AM  49.8°F  42°F  calm  calm  none  0.00"  90%  88%  47°F  39°F  30.27"
Mon 06:00 AM  49.8°F  42°F  calm  calm  none  0.00"  89%  87%  47°F  38°F  30.26"
Mon 05:00 AM  49.5°F  43°F  calm  calm  none  0.00"  89%  86%  46°F  39°F  30.24"
Mon 04:00 AM  49.7°F  44°F  calm  1 mph  none  0.00"  90%  85%  47°F  39°F  30.23"
Mon 03:00 AM  49.5°F  44°F  calm  1 mph  none  0.00"  92%  83%  47°F  39°F  30.22"
Mon 02:00 AM  49.0°F  45°F  calm  calm  none  0.00"  92%  82%  47°F  39°F  30.22"
Mon 01:00 AM  48.5°F  45°F  calm  calm  none  0.00"  92%  81%  46°F  40°F  30.21"
3Mon 12:49 AM  48.4°F  46°F  calm  calm  none  ----  91%  81%  46°F  40°F  30.22"
Mon 12:00 AM  49.5°F  46°F  calm  calm  none  0.00"  89%  79%  46°F  40°F  30.21"
Sun 11:00 PM  49.5°F  48°F  calm  calm  none  0.00"  88%  78%  46°F  41°F  30.20"
Sun 10:00 PM  50.3°F  49°F  calm  calm  none  0.00"  84%  75%  45°F  41°F  30.19"
Sun 09:00 PM  51.0°F  51°F  calm  1 mph  none  0.00"  82%  71%  46°F  41°F  30.16"
Sun 08:00 PM  51.4°F  53°F  calm  1 mph  none  0.00"  80%  67%  45°F  42°F  30.14"
Sun 07:00 PM  51.1°F  55°F  calm  1 mph  none  0.00"  81%  62%  45°F  42°F  30.10"
Sun 06:00 PM  51.4°F  59°F  calm  2 mph  none  0.00"  80%  54%  45°F  42°F  30.06"
Sun 05:00 PM  53.0°F  64°F  calm  3 mph  none  0.00"  78%  46%  46°F  42°F  30.03"
Sun 04:00 PM  57.3°F  69°F  calm  3 mph  none  0.00"  71%  39%  48°F  42°F  30.02"
Sun 03:00 PM  58.6°F  71°F  calm  3 mph  none  0.00"  72%  36%  49°F  41°F  30.00"
Sun 02:00 PM  56.8°F  71°F  calm  3 mph  none  0.00"  79%  36%  50°F  41°F  30.01"
Sun 01:00 PM  57.2°F  69°F  calm  3 mph  none  0.00"  80%  37%  51°F  41°F  29.99"
Sun 12:00 PM  57.9°F  68°F  calm  2 mph  none  0.00"  82%  40%  52°F  41°F  29.99"
Sun 11:00 AM  55.8°F  64°F  calm  2 mph  none  0.00"  87%  46%  52°F  42°F  30.01"
Sun 10:00 AM  54.0°F  60°F  calm  2 mph  none  0.00"  87%  55%  50°F  43°F  29.99"
Sun 09:00 AM  52.2°F  54°F  calm  1 mph  none  0.00"  88%  68%  49°F  44°F  29.96"
Sun 08:00 AM  50.9°F  46°F  calm  1 mph  none  0.00"  89%  85%  48°F  42°F  29.94"
Sun 07:00 AM  49.6°F  42°F  calm  calm  none  0.00"  91%  87%  47°F  38°F  29.91"
Sun 06:00 AM  50.0°F  42°F  calm  calm  none  0.00"  93%  87%  48°F  38°F  29.88"
Sun 05:00 AM  50.3°F  43°F  calm  calm  none  0.00"  91%  86%  48°F  39°F  29.86"
Sun 04:00 AM  50.7°F  43°F  calm  1 mph  none  0.00"  91%  84%  48°F  39°F  29.85"
Sun 03:00 AM  50.5°F  44°F  calm  1 mph  none  0.00"  94%  83%  49°F  39°F  29.83"
Sun 02:00 AM  49.8°F  45°F  calm  calm  none  0.01"  94%  82%  48°F  39°F  29.80"
Sun 01:00 AM  49.7°F  45°F  calm  calm  none  0.00"  92%  81%  47°F  40°F  29.79"
Sun 12:00 AM  48.8°F  46°F  calm  calm  none  0.00"  95%  79%  47°F  40°F  29.78"
Sat 11:00 PM  50.3°F  48°F  calm  calm  none  0.00"  93%  77%  48°F  41°F  29.78"
Sat 10:00 PM  51.8°F  49°F  calm  calm  none  0.00"  91%  74%  49°F  41°F  29.75"

  1. Current weather data. No green row appears if the current weather data is also the high or low for the current day.
  2. High temperature for the current day.
  3. Low temperature for the current day.

The Wildomar, California weather pages are a service of WeatherCurrents. Wildomar is located southwestern Riverside County, California, north of Murrieta and south of Lake Elsinore.
Copyright ©Mon Feb 20 09:45:58 PST 2017  WeatherCurrents. All rights reserved. - Submit questions and comments - Privacy Policy

This page automatically refreshes every 10 minutes.